Time;durP1;ratioP1;P1;durP2;ratioP2;P2;SDS_P1;SDS_P2;PMS_P1;PMS_P2;Temp;Humidity;BMP_temperature;BMP_pressure;BME280_temperature;BME280_humidity;BME280_pressure;Samples;Min_cycle;Max_cycle;Signal;HPM_P1;HPM_P2
2023/04/04 00:02:00;;;;;;;8.90;7.00;;;;;;;10.25;100.00;93441.81;5071735;28;20451;-79
2023/04/04 00:04:27;;;;;;;8.30;7.00;;;;;;;10.15;100.00;93443.75;5071867;28;20483;-79
2023/04/04 00:06:54;;;;;;;6.50;5.90;;;;;;;10.15;100.00;93438.50;5075430;28;20495;-78
2023/04/04 00:09:21;;;;;;;5.70;5.20;;;;;;;10.16;100.00;93440.16;5075632;28;20806;-78
2023/04/04 00:11:49;;;;;;;7.43;6.40;;;;;;;10.08;100.00;93453.22;5075505;28;21045;-77
2023/04/04 00:14:16;;;;;;;7.30;6.60;;;;;;;9.77;100.00;93451.22;5075353;28;20544;-79
2023/04/04 00:16:43;;;;;;;7.60;5.60;;;;;;;9.80;100.00;93445.66;5056446;28;20501;-79
2023/04/04 00:19:13;;;;;;;5.93;5.40;;;;;;;9.87;100.00;93451.91;5075437;28;20466;-79
2023/04/04 00:21:40;;;;;;;6.43;5.50;;;;;;;9.92;100.00;93457.47;5075137;28;20534;-80
2023/04/04 00:24:07;;;;;;;6.10;5.50;;;;;;;9.89;100.00;93454.38;5075127;28;20440;-79
2023/04/04 00:26:34;;;;;;;7.87;7.10;;;;;;;9.92;100.00;93451.41;5075381;28;20936;-80
2023/04/04 00:29:02;;;;;;;6.90;5.93;;;;;;;10.01;100.00;93447.00;5075530;28;20447;-78
2023/04/04 00:31:29;;;;;;;7.83;5.77;;;;;;;10.02;100.00;93444.22;5074918;28;20449;-79
2023/04/04 00:33:55;;;;;;;5.47;4.93;;;;;;;9.99;100.00;93438.47;5039583;28;20444;-79
2023/04/04 00:36:23;;;;;;;6.13;5.53;;;;;;;9.96;100.00;93438.81;5075193;28;20449;-79
2023/04/04 00:38:49;;;;;;;6.50;6.00;;;;;;;9.97;100.00;93445.69;5074893;28;20541;-79
2023/04/04 00:41:17;;;;;;;9.93;6.60;;;;;;;9.96;100.00;93423.91;5075185;28;20440;-79
2023/04/04 00:43:44;;;;;;;5.57;5.07;;;;;;;10.05;100.00;93424.72;5075229;28;20455;-79
2023/04/04 00:46:14;;;;;;;5.43;5.00;;;;;;;10.00;100.00;93427.84;5074719;28;20532;-79
2023/04/04 00:48:41;;;;;;;3.87;3.57;;;;;;;9.71;100.00;93423.06;5074785;28;20489;-78
2023/04/04 00:51:08;;;;;;;3.73;3.50;;;;;;;9.81;100.00;93410.63;5074845;28;20444;-79
2023/04/04 00:53:36;;;;;;;4.57;4.27;;;;;;;9.83;100.00;93413.91;5039133;28;20490;-79
2023/04/04 00:56:02;;;;;;;4.50;4.10;;;;;;;9.94;100.00;93404.91;5075255;28;20514;-79
2023/04/04 00:58:30;;;;;;;4.93;4.43;;;;;;;10.04;100.00;93417.84;5074802;28;20475;-79
2023/04/04 01:00:57;;;;;;;6.20;3.97;;;;;;;10.10;100.00;93411.94;5074539;28;20896;-79
2023/04/04 01:03:25;;;;;;;4.60;4.20;;;;;;;10.13;100.00;93409.03;5074684;28;20444;-79
2023/04/04 01:05:52;;;;;;;4.13;3.83;;;;;;;10.12;100.00;93417.84;5074478;28;20991;-78
2023/04/04 01:08:22;;;;;;;3.90;3.60;;;;;;;10.14;100.00;93418.53;5074482;28;20455;-78
2023/04/04 01:10:50;;;;;;;3.63;3.43;;;;;;;10.16;100.00;93424.44;5074606;28;20440;-78
2023/04/04 01:13:17;;;;;;;4.40;4.00;;;;;;;10.21;100.00;93420.34;5055468;28;20444;-79
2023/04/04 01:15:44;;;;;;;4.40;4.10;;;;;;;10.29;100.00;93427.38;5074106;28;20943;-79
2023/04/04 01:18:14;;;;;;;4.00;3.80;;;;;;;10.39;100.00;93422.78;5073447;28;20455;-79
2023/04/04 01:20:52;;;;;;;4.50;4.10;;;;;;;10.46;100.00;93431.66;5074272;28;20861;-79
2023/04/04 01:23:21;;;;;;;5.53;5.03;;;;;;;10.53;100.00;93432.63;5074515;28;20496;-79
2023/04/04 01:25:49;;;;;;;4.77;4.20;;;;;;;10.57;100.00;93435.72;5073941;28;20484;-76
2023/04/04 01:28:16;;;;;;;5.73;5.23;;;;;;;10.61;100.00;93438.84;5055591;28;20444;-79
2023/04/04 01:30:45;;;;;;;5.40;4.90;;;;;;;10.57;100.00;93434.91;5074352;28;20452;-79
2023/04/04 01:33:19;;;;;;;4.30;4.00;;;;;;;10.46;100.00;93436.91;5074573;28;20558;-77
2023/04/04 01:35:56;;;;;;;4.57;3.80;;;;;;;10.30;100.00;93428.22;5074199;28;20882;-79
2023/04/04 01:38:30;;;;;;;4.40;4.10;;;;;;;10.16;100.00;93432.28;5074343;28;20474;-79
2023/04/04 01:41:03;;;;;;;5.67;5.17;;;;;;;10.10;100.00;93441.59;5073967;28;20479;-79
2023/04/04 01:43:31;;;;;;;5.97;4.67;;;;;;;10.11;100.00;93439.78;5073758;28;20488;-79
2023/04/04 01:45:58;;;;;;;5.63;5.20;;;;;;;9.92;100.00;93433.09;5073556;28;20544;-79
2023/04/04 01:48:26;;;;;;;4.50;4.20;;;;;;;10.08;100.00;93425.22;5055051;28;20451;-78
2023/04/04 01:50:52;;;;;;;3.77;3.47;;;;;;;10.09;100.00;93413.75;5073770;28;20792;-79
2023/04/04 01:53:19;;;;;;;3.60;2.90;;;;;;;10.15;100.00;93413.13;5073646;28;20458;-79
2023/04/04 01:55:46;;;;;;;2.90;2.70;;;;;;;10.16;100.00;93411.31;5054659;28;20479;-78
2023/04/04 01:58:15;;;;;;;2.33;2.13;;;;;;;10.14;100.00;93402.81;5054795;28;20447;-78
2023/04/04 02:00:42;;;;;;;2.47;2.27;;;;;;;10.03;100.00;93413.59;5073647;28;20927;-79
2023/04/04 02:03:08;;;;;;;2.60;2.37;;;;;;;9.87;100.00;93414.41;5073284;28;20815;-79
2023/04/04 02:05:35;;;;;;;4.17;3.67;;;;;;;9.69;100.00;93411.91;5073347;28;20518;-79
2023/04/04 02:08:02;;;;;;;2.73;2.50;;;;;;;9.80;100.00;93416.00;5073415;28;20463;-79
2023/04/04 02:10:29;;;;;;;1.50;1.40;;;;;;;9.83;100.00;93402.59;5073516;28;20443;-79
2023/04/04 02:12:56;;;;;;;2.83;2.53;;;;;;;9.85;100.00;93411.13;5073194;28;20873;-79
2023/04/04 02:15:25;;;;;;;5.27;3.73;;;;;;;9.80;100.00;93416.84;5072915;28;20476;-79
2023/04/04 02:17:52;;;;;;;8.40;5.93;;;;;;;9.76;100.00;93407.66;5073312;28;20452;-79
2023/04/04 02:20:19;;;;;;;2.47;2.30;;;;;;;9.73;100.00;93402.75;5073064;28;20451;-79
2023/04/04 02:22:52;;;;;;;2.27;2.07;;;;;;;9.66;100.00;93407.00;5072897;28;20580;-79
2023/04/04 02:25:19;;;;;;;2.40;2.30;;;;;;;9.45;100.00;93399.59;5054585;28;20511;-78
2023/04/04 02:27:46;;;;;;;3.03;2.80;;;;;;;9.41;100.00;93402.69;5073235;28;20468;-79
2023/04/04 02:30:13;;;;;;;1.90;1.80;;;;;;;9.39;100.00;93400.22;5072698;28;20959;-79
2023/04/04 02:32:42;;;;;;;3.50;3.20;;;;;;;9.54;100.00;93403.03;5072949;28;20436;-78
2023/04/04 02:35:09;;;;;;;3.67;2.73;;;;;;;9.68;100.00;93399.81;5072924;28;20581;-79
2023/04/04 02:37:36;;;;;;;2.33;2.13;;;;;;;9.77;100.00;93392.75;5072819;28;20435;-79
2023/04/04 02:40:03;;;;;;;2.17;2.07;;;;;;;9.87;100.00;93403.94;5053853;28;20433;-78
2023/04/04 02:42:29;;;;;;;2.27;2.10;;;;;;;9.91;100.00;93400.00;5072757;28;20821;-78
2023/04/04 02:44:56;;;;;;;2.67;2.47;;;;;;;10.00;100.00;93401.63;5072642;28;20494;-79
2023/04/04 02:47:23;;;;;;;2.57;2.37;;;;;;;10.00;100.00;93408.69;5072791;28;20479;-78
2023/04/04 02:49:51;;;;;;;2.83;2.63;;;;;;;10.02;100.00;93398.84;5072880;28;20505;-79
2023/04/04 02:52:18;;;;;;;3.50;2.70;;;;;;;10.09;100.00;93402.44;5072207;28;20488;-78
2023/04/04 02:54:45;;;;;;;2.90;2.70;;;;;;;10.11;100.00;93405.72;5072572;28;20444;-79
2023/04/04 02:57:11;;;;;;;3.10;2.90;;;;;;;10.14;100.00;93405.44;5072330;28;20819;-79
2023/04/04 02:59:38;;;;;;;3.40;3.10;;;;;;;10.15;100.00;93394.78;5072697;28;20471;-78
2023/04/04 03:02:05;;;;;;;2.27;2.07;;;;;;;10.17;100.00;93399.84;5072459;28;20779;-79
2023/04/04 03:04:32;;;;;;;4.50;2.53;;;;;;;10.19;100.00;93400.50;5072328;28;20448;-78
2023/04/04 03:07:00;;;;;;;2.03;1.80;;;;;;;9.91;100.00;93400.00;5072580;28;20583;-81
2023/04/04 03:09:27;;;;;;;3.03;2.33;;;;;;;10.13;100.00;93398.53;5072357;28;20452;-80
2023/04/04 03:11:54;;;;;;;2.80;2.47;;;;;;;10.29;100.00;93397.72;5072206;28;20886;-83
2023/04/04 03:14:21;;;;;;;2.67;2.47;;;;;;;10.43;100.00;93397.91;5072364;28;20448;-79
2023/04/04 03:16:48;;;;;;;2.93;2.70;;;;;;;10.57;100.00;93403.44;5072363;28;20436;-78
2023/04/04 03:19:15;;;;;;;3.00;2.70;;;;;;;10.63;100.00;93395.72;5073862;28;20537;-78
2023/04/04 03:21:42;;;;;;;2.80;2.60;;;;;;;10.65;100.00;93400.78;5054574;28;20457;-79
2023/04/04 03:24:11;;;;;;;4.20;2.90;;;;;;;10.61;100.00;93387.19;5055125;28;20938;-79
2023/04/04 03:26:38;;;;;;;2.47;2.27;;;;;;;10.61;100.00;93389.00;5073501;28;20571;-79
2023/04/04 03:29:05;;;;;;;2.93;2.73;;;;;;;10.47;100.00;93386.09;5073343;28;20448;-79
2023/04/04 03:31:32;;;;;;;4.77;3.37;;;;;;;10.52;100.00;93382.97;5073353;28;20476;-80
2023/04/04 03:33:59;;;;;;;3.40;3.10;;;;;;;10.53;100.00;93387.22;5073678;28;20451;-79
2023/04/04 03:36:26;;;;;;;5.37;3.20;;;;;;;10.49;100.00;93384.13;5073391;28;20935;-78
2023/04/04 03:38:53;;;;;;;3.10;2.80;;;;;;;10.45;100.00;93388.06;5073945;28;20455;-79
2023/04/04 03:41:21;;;;;;;3.67;2.97;;;;;;;10.35;100.00;93390.03;5075883;28;20452;-78
2023/04/04 03:43:48;;;;;;;6.63;4.90;;;;;;;10.27;100.00;93395.28;5077032;28;20441;-78
2023/04/04 03:46:15;;;;;;;7.20;5.70;;;;;;;10.18;100.00;93402.31;5077608;28;21062;-78
2023/04/04 03:48:42;;;;;;;7.03;4.70;;;;;;;10.16;100.00;93400.84;5058476;28;20440;-78
2023/04/04 03:51:08;;;;;;;6.63;5.93;;;;;;;10.00;100.00;93401.63;5076939;28;20496;-81
2023/04/04 03:53:36;;;;;;;6.50;5.90;;;;;;;9.85;100.00;93404.09;5058763;28;20926;-82
2023/04/04 03:56:04;;;;;;;4.40;4.07;;;;;;;9.72;100.00;93405.53;5058474;28;20942;-78
2023/04/04 03:58:35;;;;;;;5.80;4.37;;;;;;;9.66;100.00;93393.91;5077072;28;20903;-79
2023/04/04 04:01:01;;;;;;;5.07;4.40;;;;;;;9.68;100.00;93399.81;5077244;28;20451;-79
2023/04/04 04:03:28;;;;;;;4.50;4.10;;;;;;;9.65;100.00;93397.50;5058457;28;20459;-79
2023/04/04 04:05:55;;;;;;;3.80;3.50;;;;;;;9.71;100.00;93389.00;5077114;28;20491;-79
2023/04/04 04:08:22;;;;;;;6.30;5.53;;;;;;;9.75;100.00;93394.72;5077293;28;20501;-78
2023/04/04 04:10:49;;;;;;;9.97;6.17;;;;;;;9.86;100.00;93403.13;5058227;28;20443;-79
2023/04/04 04:13:15;;;;;;;8.50;6.70;;;;;;;9.93;100.00;93396.22;5077029;28;20450;-78
2023/04/04 04:15:43;;;;;;;11.70;7.63;;;;;;;10.00;100.00;93390.34;5076733;28;20446;-78
2023/04/04 04:18:10;;;;;;;8.80;7.37;;;;;;;10.07;100.00;93399.19;5077033;28;20448;-80
2023/04/04 04:20:37;;;;;;;8.90;8.00;;;;;;;10.15;100.00;93399.19;5075928;28;20430;-78
2023/04/04 04:23:04;;;;;;;5.97;5.37;;;;;;;10.21;100.00;93407.25;5076733;28;20191;-78
2023/04/04 04:25:31;;;;;;;7.90;5.00;;;;;;;10.21;100.00;93411.66;5076062;28;20497;-78
2023/04/04 04:27:58;;;;;;;5.60;4.83;;;;;;;10.21;100.00;93422.16;5076453;28;20436;-79
2023/04/04 04:30:25;;;;;;;5.73;4.83;;;;;;;10.21;100.00;93416.91;5076290;28;20447;-79
2023/04/04 04:32:53;;;;;;;5.40;4.03;;;;;;;10.21;100.00;93424.78;5077255;28;20464;-77
2023/04/04 04:35:20;;;;;;;7.27;4.80;;;;;;;10.19;100.00;93417.03;5076218;28;20795;-78
2023/04/04 04:37:47;;;;;;;8.63;4.90;;;;;;;10.21;100.00;93422.16;5076707;28;20543;-76
2023/04/04 04:40:15;;;;;;;6.10;5.57;;;;;;;10.22;100.00;93423.78;5076357;28;20449;-77
2023/04/04 04:42:45;;;;;;;8.57;5.27;;;;;;;10.22;100.00;93426.41;5076071;28;20436;-78
2023/04/04 04:45:12;;;;;;;9.17;6.30;;;;;;;10.24;100.00;93434.94;5075980;28;20519;-79
2023/04/04 04:47:39;;;;;;;9.43;7.10;;;;;;;10.21;100.00;93437.88;5059123;28;20482;-79
2023/04/04 04:50:08;;;;;;;15.73;7.20;;;;;;;10.21;100.00;93440.50;5076258;28;20461;-78
2023/04/04 04:52:37;;;;;;;8.53;6.20;;;;;;;10.30;100.00;93436.88;5075006;28;20453;-79
2023/04/04 04:55:04;;;;;;;6.87;5.93;;;;;;;10.46;100.00;93434.28;5075738;28;20436;-78
2023/04/04 04:57:33;;;;;;;7.30;6.60;;;;;;;10.58;100.00;93436.56;5076154;28;20524;-78
2023/04/04 04:59:59;;;;;;;10.00;5.10;;;;;;;10.69;100.00;93446.69;5075836;28;20448;-78
2023/04/04 05:02:26;;;;;;;7.33;5.40;;;;;;;10.77;100.00;93436.22;5075567;28;20532;-77
2023/04/04 05:04:53;;;;;;;7.50;4.87;;;;;;;10.83;100.00;93448.66;5075777;28;20433;-78
2023/04/04 05:07:22;;;;;;;5.53;5.03;;;;;;;10.82;100.00;93442.59;5075430;28;20495;-76
2023/04/04 05:09:49;;;;;;;12.03;5.20;;;;;;;10.83;100.00;93451.28;5075301;28;20988;-77
2023/04/04 05:12:16;;;;;;;5.30;4.80;;;;;;;10.81;100.00;93451.44;5057104;28;20480;-76
2023/04/04 05:14:43;;;;;;;9.20;6.50;;;;;;;10.77;100.00;93454.56;5075881;28;20452;-77
2023/04/04 05:17:10;;;;;;;8.00;6.30;;;;;;;10.67;100.00;93465.22;5075731;28;20509;-77
2023/04/04 05:19:37;;;;;;;9.10;5.10;;;;;;;10.62;100.00;93459.66;5075395;28;20448;-76
2023/04/04 05:22:03;;;;;;;6.83;5.87;;;;;;;10.58;100.00;93460.97;5067626;28;20450;-77
2023/04/04 05:24:32;;;;;;;8.70;6.70;;;;;;;10.59;100.00;93469.66;5055719;28;20450;-77
2023/04/04 05:26:59;;;;;;;11.70;8.77;;;;;;;10.60;100.00;93468.69;5062380;28;20488;-78
2023/04/04 05:29:26;;;;;;;13.83;8.93;;;;;;;10.63;100.00;93473.59;5075452;28;20445;-77
2023/04/04 05:31:52;;;;;;;10.63;8.80;;;;;;;10.61;100.00;93465.88;5076085;28;20463;-78
2023/04/04 05:34:19;;;;;;;14.23;10.13;;;;;;;10.58;100.00;93462.78;5075393;28;20440;-77
2023/04/04 05:36:49;;;;;;;15.33;11.00;;;;;;;10.57;100.00;93471.63;5075221;28;20441;-78
2023/04/04 05:39:16;;;;;;;15.77;11.20;;;;;;;10.60;100.00;93477.38;5074132;28;20451;-77
2023/04/04 05:41:44;;;;;;;32.20;20.90;;;;;;;10.68;100.00;93473.91;5073744;28;20449;-78
2023/04/04 05:44:11;;;;;;;48.70;29.47;;;;;;;10.73;100.00;93475.06;5073651;28;20444;-77
2023/04/04 05:46:38;;;;;;;56.87;29.90;;;;;;;10.79;100.00;93476.22;5073744;28;20484;-77
2023/04/04 05:49:04;;;;;;;44.20;27.10;;;;;;;10.84;100.00;93476.53;5073835;28;20509;-78
2023/04/04 05:51:31;;;;;;;37.53;24.70;;;;;;;10.87;100.00;93481.44;5073581;28;20453;-78
2023/04/04 05:53:58;;;;;;;32.87;21.67;;;;;;;10.88;100.00;93475.22;5073557;28;20441;-78
2023/04/04 05:56:25;;;;;;;35.10;21.30;;;;;;;10.79;100.00;93481.47;5073790;28;20463;-78
2023/04/04 05:58:53;;;;;;;28.67;18.93;;;;;;;10.73;100.00;93474.25;5073169;28;20455;-77
2023/04/04 06:01:20;;;;;;;28.17;20.33;;;;;;;10.66;100.00;93481.94;5073159;28;20862;-78
2023/04/04 06:03:46;;;;;;;28.23;19.50;;;;;;;10.59;100.00;93477.53;5072758;28;20444;-78
2023/04/04 06:06:13;;;;;;;22.07;14.20;;;;;;;10.59;100.00;93488.03;5073123;28;20577;-78
2023/04/04 06:08:40;;;;;;;17.17;10.57;;;;;;;10.61;100.00;93483.44;5073097;28;20976;-79
2023/04/04 06:11:07;;;;;;;11.73;8.83;;;;;;;10.69;100.00;93488.66;5054167;28;21000;-78
2023/04/04 06:13:33;;;;;;;8.17;7.17;;;;;;;10.75;100.00;93493.28;5072983;28;20835;-78
2023/04/04 06:16:02;;;;;;;6.27;5.67;;;;;;;10.69;100.00;93481.63;5054314;28;20448;-77
2023/04/04 06:18:28;;;;;;;8.67;6.00;;;;;;;10.74;100.00;93479.34;5072778;28;20463;-78
2023/04/04 06:20:55;;;;;;;9.17;7.33;;;;;;;10.91;100.00;93490.63;5072800;28;20762;-78
2023/04/04 06:23:22;;;;;;;7.60;6.30;;;;;;;11.02;100.00;93492.91;5072716;28;20998;-77
2023/04/04 06:25:49;;;;;;;9.03;7.83;;;;;;;10.99;100.00;93495.88;5072585;28;20785;-77
2023/04/04 06:28:16;;;;;;;9.70;8.27;;;;;;;10.95;100.00;93498.97;5053788;28;20431;-78
2023/04/04 06:30:44;;;;;;;13.33;11.57;;;;;;;10.86;100.00;93496.38;5072386;28;20455;-78
2023/04/04 06:33:12;;;;;;;12.47;9.70;;;;;;;10.80;100.00;93504.91;5072807;28;20447;-78
2023/04/04 06:35:39;;;;;;;13.03;10.60;;;;;;;10.73;100.00;93506.56;5072244;28;20963;-76
2023/04/04 06:38:06;;;;;;;13.93;10.53;;;;;;;10.73;100.00;93513.63;5072611;28;20788;-78
2023/04/04 06:40:32;;;;;;;12.30;9.60;;;;;;;10.76;100.00;93518.53;5072633;28;20456;-77
2023/04/04 06:43:00;;;;;;;17.00;11.20;;;;;;;10.72;100.00;93519.84;5072428;28;20437;-77
2023/04/04 06:45:28;;;;;;;12.53;10.50;;;;;;;10.63;100.00;93526.06;5072660;28;20456;-78
2023/04/04 06:47:55;;;;;;;17.60;12.30;;;;;;;10.55;100.00;93524.25;5072122;28;20488;-77
2023/04/04 06:50:23;;;;;;;16.50;13.30;;;;;;;10.49;100.00;93525.72;5072569;28;20445;-78
2023/04/04 06:52:50;;;;;;;20.80;13.10;;;;;;;10.42;100.00;93529.19;5072327;28;20468;-77
2023/04/04 06:55:17;;;;;;;24.43;19.43;;;;;;;10.34;100.00;93535.22;5072662;28;20543;-78
2023/04/04 06:57:44;;;;;;;22.53;15.97;;;;;;;10.31;100.00;93537.34;5072425;28;20443;-78
2023/04/04 07:00:12;;;;;;;21.57;16.90;;;;;;;10.33;100.00;93541.44;5053637;28;20486;-78
2023/04/04 07:02:39;;;;;;;18.10;14.53;;;;;;;10.30;100.00;93547.00;5053215;28;20448;-78
2023/04/04 07:05:07;;;;;;;9.23;8.33;;;;;;;10.15;100.00;93562.53;5053125;28;20439;-78
2023/04/04 07:07:35;;;;;;;5.23;4.83;;;;;;;9.67;100.00;93568.41;5071997;28;20823;-78
2023/04/04 07:10:02;;;;;;;6.10;5.50;;;;;;;9.26;100.00;93581.28;5071845;28;20452;-79
2023/04/04 07:12:30;;;;;;;7.40;6.80;;;;;;;8.98;100.00;93588.47;5071986;28;20560;-78
2023/04/04 07:14:57;;;;;;;3.77;3.40;;;;;;;8.47;100.00;93601.44;5071335;28;20439;-78
2023/04/04 07:17:24;;;;;;;6.20;4.30;;;;;;;8.12;100.00;93603.00;5072410;28;20856;-78
2023/04/04 07:19:51;;;;;;;4.80;4.40;;;;;;;7.93;100.00;93610.94;5072062;28;20779;-78
2023/04/04 07:22:17;;;;;;;3.47;3.17;;;;;;;7.76;100.00;93604.69;5072235;28;20473;-78
2023/04/04 07:24:47;;;;;;;3.23;2.93;;;;;;;7.60;100.00;93601.91;5071771;28;20451;-78
2023/04/04 07:27:14;;;;;;;3.77;3.47;;;;;;;7.46;100.00;93618.84;5072216;28;20580;-78
2023/04/04 07:29:41;;;;;;;2.77;2.37;;;;;;;7.21;100.00;93615.06;5072036;28;20445;-79
2023/04/04 07:32:08;;;;;;;2.27;2.07;;;;;;;7.00;100.00;93635.28;5071894;28;20446;-78
2023/04/04 07:34:35;;;;;;;2.43;2.23;;;;;;;6.84;100.00;93633.25;5071849;28;20980;-78
2023/04/04 07:37:01;;;;;;;2.00;1.80;;;;;;;6.67;100.00;93636.56;5071714;28;20938;-78
2023/04/04 07:39:28;;;;;;;2.77;2.47;;;;;;;6.57;100.00;93644.38;5071751;28;20944;-79
2023/04/04 07:41:56;;;;;;;1.97;1.87;;;;;;;6.55;100.00;93654.09;5071864;28;20441;-77
2023/04/04 07:44:23;;;;;;;3.73;2.43;;;;;;;6.56;100.00;93647.94;5071454;28;20440;-78
2023/04/04 07:46:50;;;;;;;6.43;2.07;;;;;;;6.59;100.00;93637.22;5071620;28;20487;-79
2023/04/04 07:49:17;;;;;;;2.20;2.00;;;;;;;6.60;100.00;93651.91;5071498;28;20437;-78
2023/04/04 07:51:43;;;;;;;2.80;2.17;;;;;;;6.67;100.00;93653.03;5071740;28;20872;-78
2023/04/04 07:54:10;;;;;;;2.57;2.37;;;;;;;6.50;100.00;93659.72;5071718;28;20440;-78
2023/04/04 07:56:37;;;;;;;2.80;2.60;;;;;;;6.53;100.00;93650.81;5071609;28;20456;-77
2023/04/04 07:59:05;;;;;;;2.50;2.30;;;;;;;6.47;100.00;93664.38;5071877;28;20506;-78
2023/04/04 08:01:32;;;;;;;2.87;2.67;;;;;;;6.46;100.00;93667.94;5071264;28;20444;-79
2023/04/04 08:03:59;;;;;;;2.50;2.30;;;;;;;6.24;100.00;93679.44;5071426;28;20450;-78
2023/04/04 08:06:26;;;;;;;4.30;2.93;;;;;;;6.31;100.00;93679.72;5052091;28;20541;-78
2023/04/04 08:08:53;;;;;;;1.90;1.70;;;;;;;6.21;100.00;93675.31;5071249;28;20444;-78
2023/04/04 08:11:20;;;;;;;2.60;2.00;;;;;;;6.12;100.00;93686.53;5071356;28;20529;-79
2023/04/04 08:13:46;;;;;;;2.60;2.40;;;;;;;6.01;100.00;93689.22;5071553;28;20452;-79
2023/04/04 08:16:15;;;;;;;2.87;2.60;;;;;;;5.95;100.00;93694.16;5071610;28;20502;-78
2023/04/04 08:18:41;;;;;;;3.10;2.80;;;;;;;5.86;100.00;93706.97;5071174;28;20501;-78
2023/04/04 08:21:08;;;;;;;2.40;2.20;;;;;;;5.76;100.00;93710.47;5071420;28;20440;-78
2023/04/04 08:23:35;;;;;;;4.47;2.43;;;;;;;5.82;100.00;93723.00;5071111;28;20449;-78
2023/04/04 08:26:02;;;;;;;2.37;2.17;;;;;;;5.89;100.00;93732.78;5071806;28;20501;-78
2023/04/04 08:28:29;;;;;;;2.83;2.63;;;;;;;5.99;100.00;93742.41;5056186;28;20899;-77
2023/04/04 08:30:55;;;;;;;4.20;2.50;;;;;;;6.09;100.00;93738.06;5074750;28;20443;-78
2023/04/04 08:33:24;;;;;;;3.63;3.10;;;;;;;6.08;100.00;93737.25;5056441;28;20453;-78
2023/04/04 08:35:50;;;;;;;3.53;2.93;;;;;;;6.10;100.00;93740.53;5075025;28;20437;-77
2023/04/04 08:38:17;;;;;;;2.53;2.33;;;;;;;6.03;100.00;93722.94;5074697;28;20939;-77
2023/04/04 08:40:47;;;;;;;3.63;2.67;;;;;;;5.91;100.00;93724.84;5074430;28;20444;-77
2023/04/04 08:43:14;;;;;;;5.70;3.03;;;;;;;5.85;100.00;93722.72;5074832;28;20452;-78
2023/04/04 08:45:43;;;;;;;3.30;2.87;;;;;;;5.66;100.00;93715.63;5074473;28;20448;-78
2023/04/04 08:48:11;;;;;;;3.77;3.47;;;;;;;5.51;100.00;93728.19;5074820;28;20476;-78
2023/04/04 08:50:41;;;;;;;3.13;2.83;;;;;;;5.57;100.00;93727.66;5074573;28;20531;-78
2023/04/04 08:53:10;;;;;;;2.80;2.60;;;;;;;5.48;100.00;93733.59;5074736;28;20524;-78
2023/04/04 08:55:37;;;;;;;3.00;2.70;;;;;;;5.27;100.00;93746.63;5074414;28;20463;-77
2023/04/04 08:58:04;;;;;;;2.20;2.00;;;;;;;5.24;100.00;93748.69;5074272;28;20817;-78
2023/04/04 09:00:31;;;;;;;2.77;2.57;;;;;;;5.23;100.00;93753.06;5074690;28;20444;-78
2023/04/04 09:03:05;;;;;;;3.47;3.17;;;;;;;5.10;100.00;93760.19;5074550;28;20437;-77
2023/04/04 09:05:32;;;;;;;3.00;2.60;;;;;;;5.08;100.00;93761.25;5074362;28;20474;-78
2023/04/04 09:08:01;;;;;;;2.93;2.73;;;;;;;5.18;100.00;93767.34;5074417;28;20488;-78
2023/04/04 09:10:28;;;;;;;2.97;2.67;;;;;;;5.35;100.00;93765.97;5074160;28;20447;-80
2023/04/04 09:12:56;;;;;;;2.77;2.57;;;;;;;5.44;100.00;93773.03;5074129;28;20577;-79
2023/04/04 09:15:23;;;;;;;3.20;3.00;;;;;;;5.48;100.00;93774.41;5074176;28;20445;-77
2023/04/04 09:17:50;;;;;;;6.93;3.40;;;;;;;5.55;100.00;93775.56;5074134;28;20444;-78
2023/04/04 09:20:37;;;;;;;4.03;3.43;;;;;;;5.45;100.00;93775.50;5074217;28;20487;-78
2023/04/04 09:23:08;;;;;;;7.13;4.83;;;;;;;5.35;100.00;93769.41;5074461;28;20467;-78
2023/04/04 09:25:35;;;;;;;9.27;5.33;;;;;;;5.24;100.00;93762.50;5074086;28;20452;-77
2023/04/04 09:28:04;;;;;;;8.47;6.07;;;;;;;5.28;100.00;93756.09;5074012;28;20484;-78
2023/04/04 09:30:32;;;;;;;11.23;6.50;;;;;;;5.37;100.00;93762.31;5074389;28;20535;-78
2023/04/04 09:33:01;;;;;;;14.43;7.93;;;;;;;5.45;100.00;93761.66;5073892;28;20519;-78
2023/04/04 09:35:28;;;;;;;7.73;6.17;;;;;;;5.56;100.00;93757.22;5073688;28;20468;-78
2023/04/04 09:37:56;;;;;;;5.80;4.50;;;;;;;5.48;100.00;93764.00;5073031;28;20453;-78
2023/04/04 09:40:25;;;;;;;3.80;3.40;;;;;;;5.46;100.00;93769.34;5073767;28;20547;-78
2023/04/04 09:42:55;;;;;;;8.63;3.20;;;;;;;5.49;100.00;93769.09;5055113;28;20535;-78
2023/04/04 09:45:25;;;;;;;3.97;3.60;;;;;;;5.56;100.00;93766.81;5073593;28;20448;-79
2023/04/04 09:47:52;;;;;;;4.10;3.70;;;;;;;5.69;100.00;93780.44;5073627;28;20571;-77
2023/04/04 09:50:22;;;;;;;3.30;3.00;;;;;;;5.59;100.00;93776.97;5073526;28;20527;-77
2023/04/04 09:52:49;;;;;;;8.03;5.63;;;;;;;5.67;100.00;93768.50;5073596;28;20499;-78
2023/04/04 09:55:17;;;;;;;7.50;5.17;;;;;;;5.69;100.00;93780.44;5054417;28;20445;-78
2023/04/04 09:57:47;;;;;;;12.37;6.50;;;;;;;5.72;100.00;93792.38;5073412;28;20445;-78
2023/04/04 10:00:20;;;;;;;6.47;4.47;;;;;;;5.70;100.00;93789.06;5073709;28;20947;-78
2023/04/04 10:02:49;;;;;;;6.80;4.53;;;;;;;5.70;100.00;93786.47;5073201;28;20444;-78
2023/04/04 10:05:16;;;;;;;5.17;4.10;;;;;;;5.47;100.00;93791.78;5073521;28;20451;-78
2023/04/04 10:07:46;;;;;;;5.30;4.37;;;;;;;5.50;100.00;93790.75;5073104;28;20829;-77
2023/04/04 10:10:14;;;;;;;5.10;4.57;;;;;;;5.56;100.00;93800.63;5073264;28;20448;-78
2023/04/04 10:12:41;;;;;;;19.30;7.57;;;;;;;5.62;100.00;93796.69;5073130;28;21024;-78
2023/04/04 10:15:10;;;;;;;22.10;8.00;;;;;;;5.58;100.00;93806.53;5073308;28;20447;-78
2023/04/04 10:17:38;;;;;;;22.07;10.20;;;;;;;5.54;100.00;93805.97;5054003;28;20444;-77
2023/04/04 10:20:06;;;;;;;15.70;7.83;;;;;;;5.46;100.00;93808.34;5072726;28;20904;-77
2023/04/04 10:22:33;;;;;;;11.30;6.33;;;;;;;5.42;100.00;93814.78;5072997;28;20448;-77
2023/04/04 10:25:00;;;;;;;41.17;15.17;;;;;;;5.37;100.00;93806.53;5072724;28;20506;-77
2023/04/04 10:27:27;;;;;;;12.97;7.07;;;;;;;5.32;100.00;93813.88;5072613;28;20575;-78
2023/04/04 10:29:55;;;;;;;15.80;8.30;;;;;;;5.34;100.00;93813.75;5072697;28;20998;-77
2023/04/04 10:32:32;;;;;;;15.17;7.67;;;;;;;5.36;100.00;93817.88;5072643;28;20459;-78
2023/04/04 10:35:03;;;;;;;15.27;9.73;;;;;;;5.37;100.00;93819.53;5072526;28;20448;-77
2023/04/04 10:37:36;;;;;;;12.20;7.17;;;;;;;5.46;100.00;93818.75;5072946;28;20850;-78
2023/04/04 10:40:08;;;;;;;7.60;5.90;;;;;;;5.46;100.00;93813.56;5072547;28;20445;-77
2023/04/04 10:42:39;;;;;;;14.97;9.20;;;;;;;5.51;100.00;93821.84;5072747;28;20441;-77
2023/04/04 10:45:09;;;;;;;6.20;5.57;;;;;;;5.35;99.50;93826.63;5072649;28;20807;-77
2023/04/04 10:47:37;;;;;;;7.87;5.20;;;;;;;5.30;100.00;93826.19;5072216;28;20481;-78
2023/04/04 10:50:07;;;;;;;6.57;5.50;;;;;;;5.28;100.00;93831.50;5072209;28;20487;-78
2023/04/04 10:52:36;;;;;;;8.87;6.30;;;;;;;5.37;100.00;93835.13;5072168;28;20922;-77
2023/04/04 10:55:06;;;;;;;6.63;5.03;;;;;;;5.34;99.33;93829.34;5072201;28;20547;-77
2023/04/04 10:57:34;;;;;;;6.70;4.40;;;;;;;5.46;98.68;93829.16;5053810;28;21001;-78
2023/04/04 11:00:04;;;;;;;20.50;11.17;;;;;;;5.51;96.70;93841.81;5072235;28;20509;-78
2023/04/04 11:02:50;;;;;;;20.70;9.43;;;;;;;5.43;97.32;93820.78;5072148;28;20486;-77
2023/04/04 11:05:22;;;;;;;6.10;5.43;;;;;;;5.48;97.08;93845.47;5071979;28;20982;-77
2023/04/04 11:07:54;;;;;;;7.13;4.90;;;;;;;5.43;96.25;93845.03;5072383;28;20928;-77
2023/04/04 11:10:28;;;;;;;9.90;5.67;;;;;;;5.40;95.99;93836.66;5072202;28;20440;-78
2023/04/04 11:12:57;;;;;;;6.50;4.97;;;;;;;5.42;96.42;93826.94;5071932;28;20824;-78
2023/04/04 11:15:26;;;;;;;7.60;5.30;;;;;;;5.44;96.07;93854.50;5071785;28;20502;-77
2023/04/04 11:17:59;;;;;;;11.20;7.07;;;;;;;5.38;96.16;93847.19;5071785;28;20970;-77
2023/04/04 11:20:34;;;;;;;5.90;5.27;;;;;;;5.46;94.93;93849.97;5071925;28;20537;-78
2023/04/04 11:23:06;;;;;;;5.37;4.87;;;;;;;5.53;95.48;93845.94;5072253;28;20474;-77
2023/04/04 11:25:38;;;;;;;10.07;6.07;;;;;;;5.60;93.42;93865.31;5072151;28;20856;-78
2023/04/04 11:28:15;;;;;;;5.17;4.57;;;;;;;5.60;92.71;93860.09;5071914;28;21061;-78
2023/04/04 11:30:49;;;;;;;3.17;2.97;;;;;;;5.52;93.17;93865.13;5072083;28;20444;-77